KLGC/LGC METAR and TAF weather

Enter ICAO airport designator
Station Type Date Time Source
KLGC METAR 2020/08/12 18:15 UTC NOAA

KLGC 121815Z AUTO 00000KT SCT048 BKN055 BKN090 33/20 A3001 RMK AO2 LTG DSNT N T03340204 PWINO


Station Type Date Time Source
KLGC Decoded METAR 2020/08/12 18:15 UTC NOAA

La Grange, Callaway Airport, GA, United States (KLGC) 33-00-32N 085-04-21W
Aug 12, 2020 - 02:15 PM EDT / 2020.08.12 1815 UTC
Wind: Calm:0
Sky conditions: mostly cloudy
Weather: Lightning observed
Temperature: 92.1 F (33.4 C)
Heat index: 96.6 F (35.9 C):1
Dew Point: 68.7 F (20.4 C)
Relative Humidity: 46%
Pressure (altimeter): 30.01 in. Hg (1016 hPa)
ob: KLGC 121815Z AUTO 00000KT SCT048 BKN055 BKN090 33/20 A3001 RMK AO2 LTG DSNT N T03340204 PWINO
cycle: 18

Station Type Date Time Source
KLGC TAF UTC NOAA

Error!

Example: see airport list